Time;durP1;ratioP1;P1;durP2;ratioP2;P2;SDS_P1;SDS_P2;PMS_P1;PMS_P2;Temp;Humidity;BMP_temperature;BMP_pressure;BME280_temperature;BME280_humidity;BME280_pressure;Samples;Min_cycle;Max_cycle;Signal;HPM_P1;HPM_P2
2021/11/12 00:12:34;;;;;;;12.48;5.80;;;6.40;95.40;;;;;;4878732;29;20169;-94
2021/11/12 00:15:00;;;;;;;9.32;4.13;;;;;;;;;;4877990;29;20071;-93
2021/11/12 00:17:29;;;;;;;20.42;7.75;;;6.40;74.80;;;;;;4878410;29;21263;-93
2021/11/12 00:19:56;;;;;;;22.45;9.25;;;6.40;74.40;;;;;;4872737;29;20037;-94
2021/11/12 00:22:23;;;;;;;15.25;6.95;;;;;;;;;;4878000;29;20394;-92
2021/11/12 00:24:53;;;;;;;12.57;6.53;;;6.20;74.10;;;;;;4878352;29;20079;-95
2021/11/12 00:27:20;;;;;;;18.95;8.00;;;;;;;;;;4892128;29;20285;-95
2021/11/12 00:30:34;;;;;;;16.30;7.97;;;;;;;;;;4917076;29;20031;-93
2021/11/12 00:40:29;;;;;;;18.77;8.27;;;6.30;93.80;;;;;;4909869;29;20515;-95
2021/11/12 00:45:29;;;;;;;21.65;7.72;;;6.10;74.60;;;;;;4917365;29;20056;-92
2021/11/12 00:48:09;;;;;;;;;;;6.00;75.60;;;;;;4917769;29;20030;-93
2021/11/12 00:55:37;;;;;;;9.90;3.88;;;6.30;76.10;;;;;;4917259;29;20032;-94
2021/11/12 00:58:03;;;;;;;8.52;3.90;;;;;;;;;;4905723;29;20060;-93
2021/11/12 01:00:29;;;;;;;13.15;6.90;;;;;;;;;;4905015;29;20032;-94
2021/11/12 01:02:56;;;;;;;16.67;6.93;;;;;;;;;;4914151;29;20170;-94
2021/11/12 01:05:22;;;;;;;17.60;8.10;;;;;;;;;;4913850;29;20571;-93
2021/11/12 01:07:49;;;;;;;12.45;4.75;;;;;;;;;;4894591;29;20133;-94
2021/11/12 01:10:15;;;;;;;11.48;6.32;;;;;;;;;;4917070;29;20044;-94
2021/11/12 01:12:42;;;;;;;14.10;5.32;;;;;;;;;;4917927;29;20024;-94
2021/11/12 01:15:15;;;;;;;15.13;7.07;;;6.20;75.30;;;;;;4916928;29;20386;-93
2021/11/12 01:17:41;;;;;;;11.80;5.70;;;;;;;;;;4931563;29;20668;-93
2021/11/12 01:20:08;;;;;;;20.58;7.45;;;;;;;;;;4917428;29;20028;-94
2021/11/12 01:22:34;;;;;;;10.30;5.70;;;;;;;;;;4916989;29;20028;-94
2021/11/12 01:25:05;;;;;;;19.70;6.72;;;6.20;74.90;;;;;;4916699;29;20119;-95
2021/11/12 01:27:32;;;;;;;20.75;8.00;;;6.20;74.20;;;;;;4916572;29;20021;-94
2021/11/12 01:29:58;;;;;;;;;;;;;;;;;;4916861;29;20067;-94
2021/11/12 01:32:26;;;;;;;12.25;5.18;;;;;;;;;;4916821;29;19933;-95
2021/11/12 01:34:54;;;;;;;;;;;6.20;78.80;;;;;;4922851;29;20028;-94
2021/11/12 01:37:21;;;;;;;15.43;6.13;;;;;;;;;;4922173;29;19978;-94
2021/11/12 01:39:53;;;;;;;6.68;4.72;;;;;;;;;;4916646;29;20039;-94
2021/11/12 01:42:21;;;;;;;10.55;4.53;;;;;;;;;;4916121;29;20138;-94
2021/11/12 01:44:51;;;;;;;;;;;6.40;75.90;;;;;;4916067;29;20036;-93
2021/11/12 01:50:12;;;;;;;14.85;7.03;;;;;;;;;;4916419;29;20071;-92
2021/11/12 01:52:46;;;;;;;17.90;7.55;;;;;;;;;;4914480;29;20028;-94
2021/11/12 01:55:40;;;;;;;24.45;6.60;;;6.10;74.90;;;;;;4915170;29;20035;-94
2021/11/12 01:58:16;;;;;;;10.32;5.20;;;;;;;;;;4905765;29;20052;-92
2021/11/12 02:00:42;;;;;;;;;;;6.10;75.10;;;;;;4907126;29;20028;-93
2021/11/12 02:03:09;;;;;;;21.48;8.20;;;;;;;;;;4914588;29;20375;-93
2021/11/12 02:05:35;;;;;;;15.80;7.22;;;;;;;;;;4897454;29;20049;-94
2021/11/12 02:08:01;;;;;;;16.20;6.82;;;;;;;;;;4899718;29;20114;-94
2021/11/12 02:10:30;;;;;;;22.45;11.05;;;;;;;;;;4900795;29;20188;-93
2021/11/12 02:13:08;;;;;;;12.40;6.63;;;;;;;;;;4890631;29;20040;-93
2021/11/12 02:15:35;;;;;;;;;;;;;;;;;;4916774;29;20024;-94
2021/11/12 02:18:10;;;;;;;8.57;5.07;;;6.10;76.90;;;;;;4927510;29;20484;-93
2021/11/12 02:20:46;;;;;;;16.48;5.70;;;;;;;;;;4916279;29;20059;-92
2021/11/12 02:23:12;;;;;;;14.73;5.97;;;;;;;;;;4897228;29;20033;-94
2021/11/12 02:25:41;;;;;;;9.93;5.85;;;;;;;;;;4912476;29;20036;-93
2021/11/12 02:28:12;;;;;;;13.65;6.03;;;;;;;;;;4916761;29;20040;-93
2021/11/12 02:30:40;;;;;;;11.25;4.97;;;6.10;75.30;;;;;;4919621;29;20032;-93
2021/11/12 02:33:15;;;;;;;8.75;5.57;;;6.00;76.00;;;;;;4919629;29;20025;-93
2021/11/12 02:36:06;;;;;;;5.78;4.22;;;6.00;76.00;;;;;;4919639;29;20502;-94
2021/11/12 02:38:36;;;;;;;10.90;5.35;;;6.00;77.00;;;;;;4907063;29;20060;-94
2021/11/12 02:41:05;;;;;;;7.95;5.45;;;;;;;;;;4901223;29;20044;-94
2021/11/12 02:43:32;;;;;;;8.80;4.68;;;;;;;;;;4930367;29;20032;-94
2021/11/12 02:46:01;;;;;;;11.20;4.82;;;;;;;;;;4919685;29;20044;-94
2021/11/12 02:48:27;;;;;;;9.85;4.65;;;;;;;;;;4919814;29;20028;-95
2021/11/12 02:50:54;;;;;;;16.73;7.78;;;;;;;;;;4919873;29;20032;-94
2021/11/12 02:53:21;;;;;;;15.70;6.57;;;;;;;;;;4920281;29;20024;-93
2021/11/12 02:55:47;;;;;;;18.63;6.60;;;;;;;;;;4919382;29;20464;-94
2021/11/12 02:58:14;;;;;;;10.30;5.70;;;;;;;;;;4918797;29;20075;-94
2021/11/12 03:00:43;;;;;;;7.45;3.83;;;6.00;78.00;;;;;;4919686;29;20280;-93
2021/11/12 03:03:09;;;;;;;11.02;4.50;;;;;;;;;;4915330;29;20040;-94
2021/11/12 03:05:36;;;;;;;6.30;3.58;;;5.90;75.40;;;;;;4919514;29;20044;-93
2021/11/12 03:08:02;;;;;;;11.63;4.68;;;;;;;;;;4883869;29;20120;-94
2021/11/12 03:10:29;;;;;;;14.90;6.38;;;;;;;;;;4913813;29;20043;-93
2021/11/12 03:12:55;;;;;;;13.90;7.05;;;;;;;;;;4919204;29;20043;-94
2021/11/12 03:15:21;;;;;;;12.50;6.80;;;;;;;;;;4913077;29;20029;-94
2021/11/12 03:17:50;;;;;;;17.17;5.95;;;;;;;;;;4901236;29;20035;-94
2021/11/12 03:20:16;;;;;;;10.77;5.47;;;;;;;;;;4918336;29;20036;-94
2021/11/12 03:23:06;;;;;;;8.95;4.07;;;;;;;;;;4931561;29;20028;-93
2021/11/12 03:25:35;;;;;;;9.02;4.40;;;;;;;;;;4918956;29;20032;-94
2021/11/12 03:28:23;;;;;;;13.05;7.07;;;6.10;77.40;;;;;;4907681;29;20039;-94
2021/11/12 05:46:22;;;;;;;16.30;6.30;;;;;;;;;;5113305;28;20036;-85
2021/11/12 05:56:55;;;;;;;19.92;9.57;;;;;;;;;;5105957;28;20126;-86
2021/11/12 05:59:21;;;;;;;13.07;5.78;;;;;;;;;;5093113;28;20028;-85
2021/11/12 06:01:48;;;;;;;15.13;7.10;;;;;;;;;;5106976;28;20038;-85
2021/11/12 06:04:14;;;;;;;15.73;7.80;;;;;;;;;;5092234;28;20156;-85
2021/11/12 06:06:41;;;;;;;27.17;11.73;;;;;;;;;;5107426;28;20027;-85
2021/11/12 06:09:07;;;;;;;11.15;7.90;;;;;;;;;;5104694;28;20916;-84
2021/11/12 06:11:33;;;;;;;15.48;8.48;;;;;;;;;;5091766;28;20048;-85
2021/11/12 06:14:00;;;;;;;14.35;7.40;;;;;;;;;;5109463;28;20481;-85
2021/11/12 06:16:27;;;;;;;13.97;6.60;;;6.10;75.90;;;;;;5107420;28;20115;-84
2021/11/12 06:18:53;;;;;;;13.70;7.80;;;;;;;;;;5087383;28;20374;-84
2021/11/12 06:21:20;;;;;;;15.82;6.53;;;;;;;;;;5093938;28;20069;-90
2021/11/12 06:23:46;;;;;;;17.05;7.72;;;;;;;;;;5084200;28;20036;-85
2021/11/12 06:26:12;;;;;;;25.35;9.02;;;;;;;;;;5103755;28;20566;-85
2021/11/12 06:28:38;;;;;;;22.65;7.93;;;;;;;;;;5101027;28;20115;-85
2021/11/12 06:31:04;;;;;;;16.52;7.38;;;;;;;;;;5086031;28;20502;-85
2021/11/12 06:33:30;;;;;;;12.60;6.63;;;;;;;;;;5101027;28;20031;-84
2021/11/12 06:35:59;;;;;;;16.75;5.65;;;;;;;;;;5081720;28;20111;-85
2021/11/12 06:38:27;;;;;;;10.90;7.25;;;;;;;;;;5104379;28;20028;-84
2021/11/12 06:40:55;;;;;;;14.18;5.25;;;;;;;;;;5102253;28;20035;-85
2021/11/12 06:51:18;;;;;;;75.57;11.63;;;;;;;;;;5072669;28;20406;-88
2021/11/12 06:53:44;;;;;;;9.15;5.10;;;;;;;;;;5073768;28;20043;-86
2021/11/12 06:56:10;;;;;;;8.55;5.35;;;;;;;;;;5078876;28;20546;-86
2021/11/12 06:58:40;;;;;;;14.85;6.70;;;;;;;;;;5076046;28;20040;-86
2021/11/12 07:01:06;;;;;;;13.18;7.10;;;;;;;;;;5055502;28;20036;-86
2021/11/12 07:03:32;;;;;;;10.70;6.03;;;;;;;;;;5070567;28;20836;-86
2021/11/12 07:05:58;;;;;;;13.02;7.38;;;;;;;;;;5087134;28;20028;-86
2021/11/12 07:08:24;;;;;;;13.60;5.93;;;;;;;;;;5075295;28;20074;-86
2021/11/12 07:10:52;;;;;;;12.88;5.70;;;;;;;;;;5082618;28;20060;-86
2021/11/12 07:13:18;;;;;;;;;;;;;;;;;;5084435;28;20101;-86
2021/11/12 07:15:44;;;;;;;12.07;7.43;;;;;;;;;;5099376;28;19915;-86
2021/11/12 07:18:10;;;;;;;14.52;6.93;;;;;;;;;;5068838;28;20021;-86
2021/11/12 07:20:36;;;;;;;17.38;8.13;;;;;;;;;;5074186;28;20086;-87
2021/11/12 07:23:02;;;;;;;18.30;8.85;;;;;;;;;;5085073;28;20111;-86
2021/11/12 07:25:29;;;;;;;13.65;6.20;;;;;;;;;;5077502;28;20707;-87
2021/11/12 07:27:55;;;;;;;17.27;6.93;;;;;;;;;;5078142;28;20670;-86
2021/11/12 07:30:21;;;;;;;17.02;6.28;;;;;;;;;;5049466;28;20039;-85
2021/11/12 07:32:48;;;;;;;10.32;5.35;;;;;;;;;;5061695;28;20459;-86
2021/11/12 07:35:17;;;;;;;8.45;5.38;;;;;;;;;;5084106;28;20028;-86
2021/11/12 07:37:43;;;;;;;11.02;3.95;;;;;;;;;;5082904;28;20032;-86
2021/11/12 07:40:17;;;;;;;13.43;6.20;;;;;;;;;;5075198;28;20032;-86
2021/11/12 07:48:32;;;;;;;10.18;6.07;;;;;;;;;;5027913;28;20029;-86
2021/11/12 07:50:58;;;;;;;14.15;5.25;;;;;;;;;;5019647;28;20131;-85
2021/11/12 07:53:25;;;;;;;14.93;5.35;;;;;;;;;;5003754;28;20042;-86
2021/11/12 07:55:53;;;;;;;14.98;7.53;;;;;;;;;;5005144;28;20033;-87
2021/11/12 07:58:19;;;;;;;14.88;5.53;;;;;;;;;;5024571;28;20033;-86
2021/11/12 08:00:46;;;;;;;15.50;7.43;;;;;;;;;;5020289;28;20032;-85
2021/11/12 08:03:14;;;;;;;14.07;5.53;;;;;;;;;;5023971;28;20038;-85
2021/11/12 08:05:41;;;;;;;13.55;6.15;;;;;;;;;;5024074;28;20503;-85
2021/11/12 08:08:10;;;;;;;;;;;;;;;;;;5023435;28;20104;-85
2021/11/12 08:10:47;;;;;;;12.43;6.38;;;;;;;;;;5021232;28;20443;-85
2021/11/12 08:13:19;;;;;;;27.00;8.80;;;;;;;;;;5023559;28;20136;-85
2021/11/12 08:21:37;;;;;;;13.15;7.00;;;;;;;;;;5021008;28;20084;-85
2021/11/12 08:24:05;;;;;;;19.45;8.23;;;;;;;;;;5023205;28;20163;-90
2021/11/12 08:26:43;;;;;;;10.77;5.63;;;;;;;;;;5007528;28;20029;-85
2021/11/12 08:29:33;;;;;;;10.65;6.15;;;;;;;;;;5021313;28;20048;-86
2021/11/12 08:40:16;;;;;;;13.40;7.32;;;;;;;;;;5001260;28;20042;-88
2021/11/12 08:42:49;;;;;;;12.07;6.65;;;;;;;;;;5006151;28;20431;-86
2021/11/12 08:45:23;;;;;;;11.32;6.40;;;;;;;;;;5002666;28;20170;-87
2021/11/12 08:47:54;;;;;;;19.10;7.47;;;;;;;;;;5003811;28;20065;-86
2021/11/12 08:50:22;;;;;;;12.20;6.85;;;;;;;;;;5001704;28;20053;-86
2021/11/12 08:52:52;;;;;;;16.02;7.82;;;;;;;;;;5005997;28;20042;-86
2021/11/12 08:55:26;;;;;;;11.38;6.15;;;;;;;;;;5016763;28;20033;-86
2021/11/12 08:57:52;;;;;;;10.20;5.95;;;;;;;;;;5050716;28;20191;-86
2021/11/12 09:00:18;;;;;;;10.23;6.80;;;;;;;;;;5021849;28;20025;-86
2021/11/12 09:02:45;;;;;;;16.85;7.63;;;;;;;;;;5026249;28;20025;-87
2021/11/12 09:05:11;;;;;;;15.10;7.60;;;;;;;;;;5036892;28;20507;-86
2021/11/12 09:07:37;;;;;;;14.63;8.10;;;;;;;;;;5041591;28;20037;-87
2021/11/12 09:10:04;;;;;;;16.17;6.05;;;;;;;;;;5037643;28;20021;-86
2021/11/12 09:12:30;;;;;;;16.03;5.93;;;;;;;;;;5078732;28;20113;-86
2021/11/12 09:14:58;;;;;;;16.45;8.20;;;;;;;;;;5087492;28;20028;-86
2021/11/12 09:17:28;;;;;;;16.95;6.70;;;15.10;55.00;;;;;;5076727;28;20031;-84
2021/11/12 09:19:57;;;;;;;14.70;7.93;;;;;;;;;;5077728;28;20478;-86
2021/11/12 09:22:27;;;;;;;13.45;6.93;;;15.60;53.50;;;;;;5069339;28;20039;-86
2021/11/12 09:24:53;;;;;;;13.65;5.53;;;;;;;;;;5070930;28;20035;-86
2021/11/12 09:27:20;;;;;;;11.52;5.82;;;;;;;;;;5067427;28;20055;-86
2021/11/12 09:29:46;;;;;;;16.50;6.90;;;;;;;;;;5083463;28;20031;-86
2021/11/12 09:32:12;;;;;;;11.48;6.35;;;;;;;;;;5072002;28;20021;-86
2021/11/12 09:34:39;;;;;;;11.57;6.05;;;15.80;51.70;;;;;;5094355;28;20036;-86
2021/11/12 09:37:06;;;;;;;12.73;5.75;;;;;;;;;;5082803;28;20092;-86
2021/11/12 09:39:33;;;;;;;9.73;4.85;;;;;;;;;;5089539;28;20039;-86
2021/11/12 09:41:59;;;;;;;11.48;6.60;;;;;;;;;;5084709;28;20062;-86
2021/11/12 09:44:26;;;;;;;14.00;7.72;;;;;;;;;;5083659;28;20051;-85
2021/11/12 09:46:52;;;;;;;13.70;7.70;;;;;;;;;;5065474;28;20111;-86
2021/11/12 09:49:19;;;;;;;13.80;7.00;;;;;;;;;;5075396;28;20032;-85
2021/11/12 09:51:45;;;;;;;19.40;9.32;;;;;;;;;;5058944;28;20039;-85
2021/11/12 09:54:11;;;;;;;20.48;6.97;;;;;;;;;;5074754;28;20025;-86
2021/11/12 09:56:37;;;;;;;13.60;7.40;;;;;;;;;;5077644;28;20020;-85
2021/11/12 09:59:03;;;;;;;14.07;6.03;;;;;;;;;;5085633;28;20119;-85
2021/11/12 10:01:33;;;;;;;11.48;6.72;;;;;;;;;;5062481;28;20035;-85
2021/11/12 10:04:04;;;;;;;13.18;6.07;;;;;;;;;;5086230;28;20024;-86
2021/11/12 10:06:36;;;;;;;15.40;7.15;;;15.20;55.60;;;;;;5081323;28;20429;-85
2021/11/12 10:09:04;;;;;;;12.60;5.28;;;;;;;;;;5090416;28;20057;-89
2021/11/12 10:11:33;;;;;;;12.27;6.38;;;15.10;56.10;;;;;;5071784;28;20499;-88
2021/11/12 10:14:10;;;;;;;9.82;5.88;;;;;;;;;;5073082;28;20056;-86
2021/11/12 10:16:36;;;;;;;18.15;5.90;;;;;;;;;;5078942;28;20025;-85
2021/11/12 10:19:02;;;;;;;17.77;7.55;;;;;;;;;;5087277;28;20024;-85
2021/11/12 10:21:33;;;;;;;12.35;6.50;;;15.00;56.20;;;;;;5058163;28;20040;-84
2021/11/12 10:24:04;;;;;;;14.55;5.90;;;;;;;;;;5079409;28;20024;-85
2021/11/12 10:26:31;;;;;;;11.30;5.30;;;;;;;;;;5070625;28;20043;-85
2021/11/12 10:29:15;;;;;;;12.32;6.50;;;;;;;;;;5084548;28;20016;-85
2021/11/12 10:31:44;;;;;;;13.20;6.88;;;14.80;55.90;;;;;;5066134;28;20086;-84
2021/11/12 10:34:11;;;;;;;13.18;5.95;;;;;;;;;;5055302;28;20032;-85
2021/11/12 10:36:57;;;;;;;10.38;5.65;;;15.00;55.00;;;;;;5067717;28;20090;-85
2021/11/12 10:39:31;;;;;;;10.80;5.50;;;;;;;;;;5080434;28;20395;-83
2021/11/12 10:41:58;;;;;;;13.02;5.70;;;;;;;;;;5073391;28;20068;-84
2021/11/12 10:44:24;;;;;;;13.47;5.17;;;;;;;;;;5067179;28;20646;-85
2021/11/12 10:46:50;;;;;;;14.15;5.88;;;;;;;;;;5075060;28;20028;-87
2021/11/12 10:49:28;;;;;;;12.20;7.47;;;15.90;53.30;;;;;;5060146;28;20024;-87
2021/11/12 10:52:16;;;;;;;11.43;5.07;;;16.00;52.90;;;;;;5068692;28;20035;-86
2021/11/12 10:54:56;;;;;;;11.30;6.30;;;16.00;52.90;;;;;;5082427;28;20032;-85
2021/11/12 10:57:28;;;;;;;8.98;4.60;;;;;;;;;;5084868;28;20054;-85
2021/11/12 11:00:00;;;;;;;9.20;4.90;;;;;;;;;;5085484;28;20055;-88
2021/11/12 11:02:42;;;;;;;9.23;4.68;;;16.40;51.30;;;;;;5078599;28;20039;-88
2021/11/12 11:05:16;;;;;;;10.57;5.32;;;;;;;;;;5086960;28;20027;-85
2021/11/12 11:08:04;;;;;;;11.07;6.20;;;16.60;50.60;;;;;;5086926;28;20035;-85
2021/11/12 11:10:34;;;;;;;10.95;5.47;;;;;;;;;;5077461;28;20043;-85
2021/11/12 11:13:02;;;;;;;12.43;7.13;;;;;;;;;;5078923;28;20086;-84
2021/11/12 11:15:31;;;;;;;15.32;6.45;;;;;;;;;;5079858;28;20032;-85
2021/11/12 11:18:20;;;;;;;11.40;5.25;;;;;;;;;;5079929;28;20028;-87
2021/11/12 11:20:48;;;;;;;10.13;6.07;;;;;;;;;;5073166;28;20024;-86
2021/11/12 11:23:16;;;;;;;11.23;5.97;;;;;;;;;;5068588;28;20721;-85
2021/11/12 11:25:56;;;;;;;16.15;7.38;;;16.60;51.40;;;;;;5084267;28;20024;-85
2021/11/12 11:28:22;;;;;;;13.75;6.63;;;;;;;;;;5085482;28;20114;-86
2021/11/12 11:30:48;;;;;;;10.50;5.05;;;;;;;;;;5075704;28;20032;-86
2021/11/12 11:33:15;;;;;;;11.40;5.90;;;;;;;;;;5079491;28;20040;-85
2021/11/12 11:35:44;;;;;;;12.30;5.97;;;16.50;52.60;;;;;;5074322;28;20105;-84
2021/11/12 11:38:10;;;;;;;9.60;5.80;;;;;;;;;;5065204;28;20588;-85
2021/11/12 11:40:40;;;;;;;12.02;7.03;;;;;;;;;;5075849;28;22072;-87
2021/11/12 11:43:09;;;;;;;15.82;6.72;;;16.50;52.00;;;;;;5087278;28;20048;-85
2021/11/12 11:45:35;;;;;;;12.15;6.65;;;;;;;;;;5098456;28;20448;-86
2021/11/12 11:48:01;;;;;;;11.82;5.78;;;;;;;;;;5087595;28;20032;-85
2021/11/12 11:50:31;;;;;;;13.25;7.18;;;17.20;51.60;;;;;;5061734;28;20055;-85
2021/11/12 11:53:20;;;;;;;11.60;5.35;;;17.30;51.20;;;;;;5072340;28;20639;-86
2021/11/12 11:55:46;;;;;;;10.77;5.68;;;;;;;;;;5071110;28;20020;-86
2021/11/12 11:58:36;;;;;;;13.35;6.18;;;;;;;;;;5074170;28;20064;-86
2021/11/12 12:01:19;;;;;;;12.35;5.85;;;17.70;50.40;;;;;;5075345;28;20036;-83
2021/11/12 12:03:46;;;;;;;10.80;5.72;;;17.60;49.60;;;;;;5091221;28;20063;-84
2021/11/12 12:06:18;;;;;;;12.50;5.28;;;;;;;;;;5077828;28;20056;-85
2021/11/12 12:09:03;;;;;;;9.45;5.65;;;;;;;;;;5063735;28;20044;-84
2021/11/12 12:11:29;;;;;;;13.50;5.20;;;;;;;;;;5077938;28;20062;-83
2021/11/12 12:14:31;;;;;;;8.88;4.28;;;17.50;49.90;;;;;;5087980;28;20039;-84
2021/11/12 12:17:09;;;;;;;9.80;4.85;;;;;;;;;;5070068;28;20044;-84
2021/11/12 12:19:46;;;;;;;13.82;4.93;;;17.60;50.40;;;;;;5068926;28;20020;-83
2021/11/12 13:22:54;;;;;;;5.72;4.03;;;;;;;;;;5070013;28;20043;-86
2021/11/12 13:25:25;;;;;;;7.82;3.88;;;15.80;52.70;;;;;;5063678;28;20047;-84
2021/11/12 13:28:10;;;;;;;21.92;7.63;;;15.70;52.30;;;;;;5064554;28;20043;-85
2021/11/12 13:30:37;;;;;;;13.63;7.10;;;;;;;;;;5072903;28;20036;-86
2021/11/12 13:33:03;;;;;;;8.48;5.22;;;;;;;;;;5080597;28;20501;-84
2021/11/12 13:35:34;;;;;;;15.07;5.70;;;;;;;;;;5083907;28;20563;-86
2021/11/12 13:38:00;;;;;;;11.95;4.68;;;;;;;;;;5074899;28;20028;-85
2021/11/12 13:40:30;;;;;;;6.68;4.60;;;;;;;;;;5065049;28;20089;-85
2021/11/12 13:42:56;;;;;;;11.73;5.28;;;;;;;;;;5067412;28;20055;-86
2021/11/12 13:45:24;;;;;;;7.38;4.15;;;;;;;;;;5086759;28;20027;-85
2021/11/12 13:47:59;;;;;;;10.00;5.85;;;;;;;;;;5081510;28;20119;-84
2021/11/12 13:50:25;;;;;;;14.50;6.45;;;;;;;;;;5073122;28;20031;-86
2021/11/12 13:52:52;;;;;;;8.20;5.43;;;;;;;;;;5074305;28;20094;-84
2021/11/12 13:55:20;;;;;;;5.15;3.63;;;;;;;;;;5074914;28;20509;-85
2021/11/12 13:57:53;;;;;;;12.40;5.68;;;;;;;;;;5085365;28;20044;-86
2021/11/12 14:00:22;;;;;;;14.40;5.50;;;;;;;;;;5056789;28;20078;-86
2021/11/12 14:03:10;;;;;;;8.70;4.40;;;;;;;;;;5071409;28;20028;-85
2021/11/12 14:05:52;;;;;;;9.07;3.70;;;;;;;;;;5069117;28;20568;-85
2021/11/12 14:08:18;;;;;;;11.75;5.25;;;;;;;;;;5068424;28;20036;-85
2021/11/12 14:10:44;;;;;;;6.63;3.83;;;;;;;;;;5069167;28;20032;-85
2021/11/12 14:13:18;;;;;;;17.45;8.18;;;;;;;;;;5093180;28;20040;-86
2021/11/12 14:16:07;;;;;;;12.32;6.25;;;15.10;55.90;;;;;;5077231;28;20609;-86
2021/11/12 14:24:46;;;;;;;41.08;9.80;;;;;;;;;;5090476;28;20123;-85
2021/11/12 14:29:17;;;;;;;17.25;8.68;;;;;;;;;;5075354;28;20431;-85
2021/11/12 14:37:25;;;;;;;19.65;9.35;;;;;;;;;;5085801;28;20031;-84
2021/11/12 14:40:01;;;;;;;18.08;8.63;;;;;;;;;;5074124;28;20051;-85
2021/11/12 14:42:54;;;;;;;20.73;8.10;;;;;;;;;;5085501;28;20039;-85
2021/11/12 14:48:36;;;;;;;20.25;9.80;;;12.60;65.80;;;;;;5076138;28;20036;-82
2021/11/12 14:51:03;;;;;;;19.58;8.85;;;;;;;;;;5071839;28;20479;-84
2021/11/12 14:53:49;;;;;;;25.58;10.88;;;;;;;;;;5076612;28;20041;-85
2021/11/12 14:56:20;;;;;;;21.42;8.30;;;;;;;;;;5080982;28;20020;-85
2021/11/12 14:58:48;;;;;;;23.40;7.65;;;;;;;;;;5086600;28;20033;-86
2021/11/12 15:01:16;;;;;;;18.05;8.52;;;;;;;;;;5080609;28;20066;-83
2021/11/12 15:03:43;;;;;;;;;;;;;;;;;;5103675;28;20108;-83
2021/11/12 15:06:10;;;;;;;17.33;8.45;;;;;;;;;;5080089;28;19939;-84
2021/11/12 15:08:51;;;;;;;17.60;7.63;;;;;;;;;;5059303;28;20116;-85
2021/11/12 15:11:20;;;;;;;17.38;8.45;;;;;;;;;;5059130;28;20025;-86
2021/11/12 15:13:48;;;;;;;18.65;7.68;;;;;;;;;;5065233;28;20079;-86
2021/11/12 15:16:23;;;;;;;21.38;8.20;;;;;;;;;;5088198;28;20028;-86
2021/11/12 15:18:51;;;;;;;18.10;6.95;;;;;;;;;;5071508;28;20109;-86
2021/11/12 15:21:22;;;;;;;15.40;7.25;;;;;;;;;;5062871;28;20115;-86
2021/11/12 15:23:59;;;;;;;18.88;8.35;;;;;;;;;;5081570;28;20031;-87
2021/11/12 15:32:20;;;;;;;21.42;7.97;;;;;;;;;;5071647;28;20040;-86
2021/11/12 15:35:07;;;;;;;16.70;10.40;;;;;;;;;;5097459;28;20470;-85
2021/11/12 15:45:35;;;;;;;20.13;8.15;;;;;;;;;;5075879;28;20037;-86
2021/11/12 15:48:11;;;;;;;21.00;9.93;;;;;;;;;;5065995;28;20081;-85
2021/11/12 15:50:47;;;;;;;26.63;9.35;;;;;;;;;;5077654;28;20031;-86
2021/11/12 15:53:39;;;;;;;19.40;7.75;;;;;;;;;;5096252;28;20039;-85
2021/11/12 15:58:45;;;;;;;22.45;9.57;;;;;;;;;;5087979;28;20119;-84
2021/11/12 16:14:18;;;;;;;20.33;7.55;;;;;;;;;;5075898;28;20047;-86
2021/11/12 16:19:28;;;;;;;19.15;7.60;;;;;;;;;;5083684;28;20028;-84
2021/11/12 16:25:25;;;;;;;16.45;7.53;;;;;;;;;;5090744;28;20092;-84
2021/11/12 16:27:26;;;;;;;15.60;7.97;;;;;;;;;;5060045;28;20418;-84
2021/11/12 16:29:54;;;;;;;20.25;7.82;;;;;;;;;;5065754;28;20016;-84
2021/11/12 16:34:49;;;;;;;16.40;7.18;;;;;;;;;;5078264;28;20111;-83
2021/11/12 16:37:18;;;;;;;19.25;7.28;;;;;;;;;;5062239;28;20028;-84
2021/11/12 16:47:34;;;;;;;19.05;7.25;;;;;;;;;;5003372;28;20144;-84
2021/11/12 16:50:25;;;;;;;14.43;7.63;;;;;;;;;;5002093;28;20034;-84
2021/11/12 16:55:39;;;;;;;26.88;10.63;;;;;;;;;;5004722;28;20487;-84
2021/11/12 16:58:47;;;;;;;18.75;10.75;;;;;;;;;;5006001;28;20030;-85
2021/11/12 17:11:10;;;;;;;21.98;8.27;;;;;;;;;;5003508;28;20026;-84
2021/11/12 17:13:45;;;;;;;17.38;7.43;;;;;;;;;;5002113;28;20054;-83
2021/11/12 17:47:57;;;;;;;15.15;7.95;;;7.90;77.90;;;;;;5020213;28;20034;-85
2021/11/12 18:03:39;;;;;;;21.17;8.90;;;;;;;;;;5019312;28;20036;-84
2021/11/12 18:21:53;;;;;;;19.50;7.47;;;;;;;;;;5087490;28;20032;-83
2021/11/12 21:45:09;;;;;;;26.27;11.98;;;;;;;;;;5088431;28;20035;-86
2021/11/12 21:47:35;;;;;;;25.10;8.70;;;;;;;;;;5087456;28;20119;-85
2021/11/12 21:50:01;;;;;;;28.00;10.98;;;;;;;;;;5070817;28;20129;-87
2021/11/12 21:52:27;;;;;;;39.05;11.70;;;;;;;;;;5087077;28;20036;-86
2021/11/12 21:54:53;;;;;;;23.95;12.02;;;;;;;;;;5089551;28;20025;-85
2021/11/12 21:57:19;;;;;;;29.17;9.05;;;;;;;;;;5077368;28;20040;-87
2021/11/12 21:59:45;;;;;;;19.27;9.35;;;;;;;;;;5085532;28;20124;-87
2021/11/12 22:02:11;;;;;;;29.50;13.43;;;;;;;;;;5084606;28;20016;-86
2021/11/12 22:04:37;;;;;;;11.98;6.75;;;;;;;;;;5069089;28;20032;-86
2021/11/12 22:07:04;;;;;;;22.35;9.70;;;;;;;;;;5089339;28;20934;-85
2021/11/12 22:09:33;;;;;;;27.58;9.55;;;;;;;;;;5080393;28;20036;-86
2021/11/12 22:11:59;;;;;;;15.70;8.77;;;;;;;;;;5086384;28;20736;-85
2021/11/12 22:14:25;;;;;;;18.50;7.80;;;;;;;;;;5073894;28;20054;-86
2021/11/12 22:16:51;;;;;;;22.58;8.52;;;;;;;;;;5089014;28;20099;-86
2021/11/12 22:19:17;;;;;;;18.98;8.57;;;;;;;;;;5076979;28;20036;-87
2021/11/12 22:21:43;;;;;;;21.00;7.57;;;;;;;;;;5091863;28;20012;-87
2021/11/12 22:24:09;;;;;;;17.05;8.07;;;;;;;;;;5089199;28;20417;-85
2021/11/12 22:26:35;;;;;;;22.63;8.68;;;;;;;;;;5077777;28;20031;-86
2021/11/12 22:29:01;;;;;;;29.38;9.20;;;;;;;;;;5088666;28;20024;-86
2021/11/12 22:31:27;;;;;;;22.50;9.77;;;;;;;;;;5090625;28;20498;-86
2021/11/12 22:33:53;;;;;;;19.30;9.68;;;;;;;;;;5078641;28;20083;-87
2021/11/12 22:36:19;;;;;;;26.45;9.98;;;;;;;;;;5084040;28;20209;-86
2021/11/12 22:38:45;;;;;;;20.77;9.57;;;;;;;;;;5086315;28;20035;-86
2021/11/12 22:41:12;;;;;;;27.23;9.70;;;;;;;;;;5090839;28;20020;-87
2021/11/12 22:43:38;;;;;;;17.27;9.25;;;;;;;;;;5073482;28;20058;-86
2021/11/12 22:46:05;;;;;;;22.77;8.23;;;;;;;;;;5092502;28;20401;-84
2021/11/12 22:48:31;;;;;;;12.88;6.63;;;;;;;;;;5088689;28;20036;-86
2021/11/12 22:50:57;;;;;;;15.68;8.23;;;;;;;;;;5086085;28;20023;-86
2021/11/12 22:53:23;;;;;;;11.35;6.65;;;;;;;;;;5067347;28;20051;-85
2021/11/12 22:55:49;;;;;;;16.92;7.65;;;;;;;;;;5086884;28;21322;-85
2021/11/12 22:58:15;;;;;;;22.45;7.30;;;;;;;;;;5085784;28;20085;-85
2021/11/12 23:00:51;;;;;;;16.70;7.32;;;;;;;;;;5090392;28;20031;-85
2021/11/12 23:03:17;;;;;;;14.18;6.60;;;6.90;77.20;;;;;;5088216;28;20040;-86
2021/11/12 23:05:43;;;;;;;18.35;7.10;;;;;;;;;;5089120;28;20028;-85
2021/11/12 23:08:09;;;;;;;19.63;7.88;;;;;;;;;;5088050;28;20394;-85
2021/11/12 23:10:35;;;;;;;16.88;8.68;;;7.00;73.80;;;;;;5089606;28;20726;-85
2021/11/12 23:13:01;;;;;;;15.23;8.25;;;;;;;;;;5085252;28;20063;-85
2021/11/12 23:15:28;;;;;;;17.13;8.30;;;;;;;;;;5088109;28;20048;-86
2021/11/12 23:17:55;;;;;;;30.13;11.05;;;;;;;;;;5090005;28;20032;-85
2021/11/12 23:20:21;;;;;;;24.10;9.50;;;;;;;;;;5090436;28;20032;-85
2021/11/12 23:22:49;;;;;;;19.13;9.05;;;;;;;;;;5089686;28;20020;-87
2021/11/12 23:25:15;;;;;;;23.63;9.07;;;;;;;;;;5090844;28;20028;-86
2021/11/12 23:27:41;;;;;;;12.02;7.57;;;;;;;;;;5083839;28;20189;-85
2021/11/12 23:30:07;;;;;;;18.98;7.22;;;;;;;;;;5082675;28;20730;-86
2021/11/12 23:32:33;;;;;;;13.85;7.53;;;;;;;;;;5083402;28;20465;-86
2021/11/12 23:34:59;;;;;;;16.38;8.95;;;;;;;;;;5087814;28;20388;-85
2021/11/12 23:37:25;;;;;;;15.50;7.68;;;;;;;;;;5090417;28;20554;-85
2021/11/12 23:39:51;;;;;;;15.55;5.93;;;;;;;;;;5089468;28;20027;-85
2021/11/12 23:42:17;;;;;;;13.00;6.57;;;;;;;;;;5088252;28;20074;-86
2021/11/12 23:44:43;;;;;;;17.35;6.45;;;;;;;;;;5088861;28;20032;-86
2021/11/12 23:47:09;;;;;;;8.48;5.80;;;;;;;;;;5089515;28;20444;-85
2021/11/12 23:49:35;;;;;;;12.10;5.80;;;;;;;;;;5075564;28;20040;-87
2021/11/12 23:52:02;;;;;;;11.38;7.70;;;;;;;;;;5090202;28;20057;-85
2021/11/12 23:54:29;;;;;;;19.02;9.52;;;;;;;;;;5087160;28;20039;-86
2021/11/12 23:56:55;;;;;;;18.95;8.15;;;;;;;;;;5089639;28;20020;-86
2021/11/12 23:59:21;;;;;;;18.90;9.05;;;;;;;;;;5088568;28;20039;-85
